Vila Real, Portugal

10:48 AM WEST on August 31, 2014 (GMT +0100)
Moimenta Da Beira | Change Station
CLOSE
Current Station
Personal Weather Station
Location: Moimenta Da Beira, PT
Elevation: 2116 ft
Nearby Weather Stations

Elev 2116 ft 40.98 °N, 7.61 °W | Updated 3 minutes ago

Clear
Clear
72.6 °F
Feels Like 77 °F
N
4.5
Wind Variable Wind from East
Gusts 9.2 mph

Today
High -- | Low -- °F
--% Chance of Precip.
Yesterday
High -- | Low -- °F
Precip. -- in
6:56 AM 8:05 PM
Waxing Crescent, 29% visible
Pressure 30.01 in
Visibility -9999.0 miles
Clouds
Heat Index 77 °F
Dew Point 52 °F
Humidity 48%
Rainfall 0.00 in
Snow Depth Not available.
UV Not available.
Pollen Not available.
Air Quality Not available.
Flu Activity Not available.
METAR LPPR 310930Z 27003KT 220V330 CAVOK 21/17 Q1016

More Conditions Fewer Conditions

Pressure 30.01 in
Visibility -9999.0 miles
Clouds
Heat Index 77 °F
Dew Point 52 °F
Humidity 48%
Rainfall 0.00 in
Snow Depth Not available.
UV Not available.
Pollen Not available.
Air Quality Not available.
Flu Activity Not available.
METAR LPPR 310930Z 27003KT 220V330 CAVOK 21/17 Q1016

More Conditions Fewer Conditions

10-Day Weather Forecast

Almanac

Astronomy

Aug. 31, 2014 Rise Set
Actual Time 6:56 AM WEST 8:05 PM WEST
Civil Twilight 6:27 AM WEST 8:34 PM WEST
Nautical Twilight 5:53 AM WEST 9:07 PM WEST
Astronomical Twilight 5:17 AM WEST 9:43 PM WEST
Moon 12:32 PM WEST 11:07 PM WEST
Length of Visible Light 14h 06m
Length of Day
13h 09m
Tomorrow will be 2m 37s shorter.
Waxing Crescent, 29% of the Moon is Illuminated
Today
Waxing Crescent
Sep 2
First Quarter
Sep 8
Full
Sep 15
Last Quarter
Sep 24
New

Yesterday's Extremes

Country Highs Country Lows

Community

WunderPhotos

Upload Photos

1,748,834 photos uploaded!

Nearby

Snow Depth

Not available.

Earthquake Activity

City Distance Mag. Time & Date
No recent earthquake activity has been reported nearby.
Minimum magnitude displayed is 2.5.

Coastal Water Temperatures

Place Temperature
No Stations Reporting

Nearby Weather Stations